sensor_id;sensor_type;location;lat;lon;timestamp;pressure;altitude;pressure_sealevel;temperature;humidity
52319;BME280;38258;51.148;14.068;2023-05-08T00:02:13;99187.81;;;5.05;100.00
52319;BME280;38258;51.148;14.068;2023-05-08T00:04:39;99182.56;;;4.96;100.00
52319;BME280;38258;51.148;14.068;2023-05-08T00:07:06;99161.72;;;4.82;100.00
52319;BME280;38258;51.148;14.068;2023-05-08T00:09:34;99182.53;;;4.93;100.00
52319;BME280;38258;51.148;14.068;2023-05-08T00:12:01;99179.94;;;4.91;100.00
52319;BME280;38258;51.148;14.068;2023-05-08T00:14:28;99169.50;;;4.84;100.00
52319;BME280;38258;51.148;14.068;2023-05-08T00:16:54;99173.66;;;4.66;100.00
52319;BME280;38258;51.148;14.068;2023-05-08T00:19:21;99179.59;;;4.51;100.00
52319;BME280;38258;51.148;14.068;2023-05-08T00:21:48;99176.94;;;4.43;100.00
52319;BME280;38258;51.148;14.068;2023-05-08T00:24:14;99167.41;;;4.41;100.00
52319;BME280;38258;51.148;14.068;2023-05-08T00:26:42;99180.47;;;4.50;100.00
52319;BME280;38258;51.148;14.068;2023-05-08T00:29:10;99183.84;;;4.41;100.00
52319;BME280;38258;51.148;14.068;2023-05-08T00:31:37;99180.25;;;4.27;100.00
52319;BME280;38258;51.148;14.068;2023-05-08T00:34:03;99184.56;;;4.24;100.00
52319;BME280;38258;51.148;14.068;2023-05-08T00:36:30;99180.06;;;4.09;100.00
52319;BME280;38258;51.148;14.068;2023-05-08T00:38:57;99181.66;;;3.96;100.00
52319;BME280;38258;51.148;14.068;2023-05-08T00:41:24;99170.91;;;3.61;100.00
52319;BME280;38258;51.148;14.068;2023-05-08T00:43:52;99178.59;;;3.56;100.00
52319;BME280;38258;51.148;14.068;2023-05-08T00:46:19;99176.28;;;3.13;100.00
52319;BME280;38258;51.148;14.068;2023-05-08T00:48:46;99170.81;;;2.91;100.00
52319;BME280;38258;51.148;14.068;2023-05-08T00:51:13;99158.53;;;2.78;100.00
52319;BME280;38258;51.148;14.068;2023-05-08T00:53:42;99161.78;;;2.64;100.00
52319;BME280;38258;51.148;14.068;2023-05-08T00:56:13;99172.75;;;2.51;100.00
52319;BME280;38258;51.148;14.068;2023-05-08T00:58:42;99175.03;;;2.34;100.00
52319;BME280;38258;51.148;14.068;2023-05-08T01:01:11;99169.78;;;2.28;100.00
52319;BME280;38258;51.148;14.068;2023-05-08T01:03:38;99176.63;;;2.27;100.00
52319;BME280;38258;51.148;14.068;2023-05-08T01:06:06;99175.88;;;2.31;100.00
52319;BME280;38258;51.148;14.068;2023-05-08T01:08:33;99188.69;;;2.28;100.00
52319;BME280;38258;51.148;14.068;2023-05-08T01:11:08;99179.28;;;2.30;100.00
52319;BME280;38258;51.148;14.068;2023-05-08T01:13:48;99184.41;;;2.29;100.00
52319;BME280;38258;51.148;14.068;2023-05-08T01:16:22;99181.78;;;2.25;100.00
52319;BME280;38258;51.148;14.068;2023-05-08T01:18:58;99173.91;;;2.19;100.00
52319;BME280;38258;51.148;14.068;2023-05-08T01:21:32;99183.34;;;2.17;100.00
52319;BME280;38258;51.148;14.068;2023-05-08T01:24:23;99176.13;;;1.97;100.00
52319;BME280;38258;51.148;14.068;2023-05-08T01:27:33;99179.25;;;1.81;100.00
52319;BME280;38258;51.148;14.068;2023-05-08T01:33:07;99166.69;;;1.55;100.00
52319;BME280;38258;51.148;14.068;2023-05-08T01:35:43;99174.81;;;1.75;100.00
52319;BME280;38258;51.148;14.068;2023-05-08T01:38:14;99153.84;;;1.58;100.00
52319;BME280;38258;51.148;14.068;2023-05-08T01:40:51;99178.19;;;1.73;100.00
52319;BME280;38258;51.148;14.068;2023-05-08T01:43:24;99178.25;;;1.76;100.00
52319;BME280;38258;51.148;14.068;2023-05-08T01:45:53;99182.66;;;1.81;100.00
52319;BME280;38258;51.148;14.068;2023-05-08T01:48:24;99177.41;;;1.75;100.00
52319;BME280;38258;51.148;14.068;2023-05-08T01:50:57;99173.94;;;1.75;100.00
52319;BME280;38258;51.148;14.068;2023-05-08T01:53:28;99185.19;;;1.78;100.00
52319;BME280;38258;51.148;14.068;2023-05-08T01:55:57;99186.06;;;1.79;100.00
52319;BME280;38258;51.148;14.068;2023-05-08T01:58:26;99184.16;;;1.68;100.00
52319;BME280;38258;51.148;14.068;2023-05-08T02:00:55;99188.41;;;1.68;100.00
52319;BME280;38258;51.148;14.068;2023-05-08T02:03:25;99179.78;;;1.66;100.00
52319;BME280;38258;51.148;14.068;2023-05-08T02:05:54;99186.53;;;1.59;100.00
52319;BME280;38258;51.148;14.068;2023-05-08T02:08:23;99191.69;;;1.59;100.00
52319;BME280;38258;51.148;14.068;2023-05-08T02:10:51;99196.72;;;1.53;100.00
52319;BME280;38258;51.148;14.068;2023-05-08T02:13:20;99189.00;;;1.53;100.00
52319;BME280;38258;51.148;14.068;2023-05-08T02:15:48;99180.38;;;1.51;100.00
52319;BME280;38258;51.148;14.068;2023-05-08T02:18:19;99188.03;;;1.92;100.00
52319;BME280;38258;51.148;14.068;2023-05-08T02:20:48;99186.00;;;1.76;100.00
52319;BME280;38258;51.148;14.068;2023-05-08T02:23:16;99195.16;;;1.61;100.00
52319;BME280;38258;51.148;14.068;2023-05-08T02:25:45;99180.25;;;1.46;100.00
52319;BME280;38258;51.148;14.068;2023-05-08T02:28:13;99191.69;;;1.59;100.00
52319;BME280;38258;51.148;14.068;2023-05-08T02:30:41;99187.31;;;1.57;100.00
52319;BME280;38258;51.148;14.068;2023-05-08T02:33:10;99186.31;;;1.50;100.00
52319;BME280;38258;51.148;14.068;2023-05-08T02:35:39;99188.78;;;1.44;100.00
52319;BME280;38258;51.148;14.068;2023-05-08T02:38:08;99191.31;;;1.42;100.00
52319;BME280;38258;51.148;14.068;2023-05-08T02:40:37;99187.09;;;1.46;100.00
52319;BME280;38258;51.148;14.068;2023-05-08T02:43:05;99184.91;;;1.23;100.00
52319;BME280;38258;51.148;14.068;2023-05-08T02:45:38;99172.59;;;1.11;100.00
52319;BME280;38258;51.148;14.068;2023-05-08T02:48:07;99192.50;;;1.17;100.00
52319;BME280;38258;51.148;14.068;2023-05-08T02:50:38;99183.81;;;1.11;100.00
52319;BME280;38258;51.148;14.068;2023-05-08T02:53:16;99190.34;;;0.97;100.00
52319;BME280;38258;51.148;14.068;2023-05-08T02:55:48;99183.34;;;0.91;100.00
52319;BME280;38258;51.148;14.068;2023-05-08T02:58:18;99196.00;;;0.82;100.00
52319;BME280;38258;51.148;14.068;2023-05-08T03:00:48;99174.06;;;0.61;100.00
52319;BME280;38258;51.148;14.068;2023-05-08T03:03:21;99206.03;;;0.71;100.00
52319;BME280;38258;51.148;14.068;2023-05-08T03:05:51;99197.53;;;0.74;100.00
52319;BME280;38258;51.148;14.068;2023-05-08T03:08:24;99205.38;;;0.80;100.00
52319;BME280;38258;51.148;14.068;2023-05-08T03:10:55;99196.72;;;0.76;100.00
52319;BME280;38258;51.148;14.068;2023-05-08T03:13:24;99206.88;;;0.70;100.00
52319;BME280;38258;51.148;14.068;2023-05-08T03:15:54;99200.94;;;0.73;100.00
52319;BME280;38258;51.148;14.068;2023-05-08T03:18:27;99203.47;;;0.71;100.00
52319;BME280;38258;51.148;14.068;2023-05-08T03:20:58;99203.97;;;1.30;100.00
52319;BME280;38258;51.148;14.068;2023-05-08T03:23:28;99205.78;;;1.34;100.00
52319;BME280;38258;51.148;14.068;2023-05-08T03:25:57;99205.63;;;1.27;100.00
52319;BME280;38258;51.148;14.068;2023-05-08T03:28:26;99190.81;;;1.19;100.00
52319;BME280;38258;51.148;14.068;2023-05-08T03:30:55;99193.88;;;1.01;100.00
52319;BME280;38258;51.148;14.068;2023-05-08T03:33:24;99198.72;;;0.88;100.00
52319;BME280;38258;51.148;14.068;2023-05-08T03:35:52;99190.84;;;0.82;100.00
52319;BME280;38258;51.148;14.068;2023-05-08T03:38:20;99195.22;;;0.84;100.00
52319;BME280;38258;51.148;14.068;2023-05-08T03:40:49;99194.22;;;0.79;100.00
52319;BME280;38258;51.148;14.068;2023-05-08T03:43:17;99194.13;;;0.75;100.00
52319;BME280;38258;51.148;14.068;2023-05-08T03:45:46;99188.06;;;0.73;100.00
52319;BME280;38258;51.148;14.068;2023-05-08T03:48:13;99210.50;;;0.78;100.00
52319;BME280;38258;51.148;14.068;2023-05-08T03:50:41;99194.59;;;0.95;100.00
52319;BME280;38258;51.148;14.068;2023-05-08T03:53:09;99202.88;;;1.20;100.00
52319;BME280;38258;51.148;14.068;2023-05-08T03:55:36;99203.97;;;1.30;100.00
52319;BME280;38258;51.148;14.068;2023-05-08T03:58:13;99203.31;;;1.40;100.00
52319;BME280;38258;51.148;14.068;2023-05-08T04:00:53;99208.34;;;1.34;100.00
52319;BME280;38258;51.148;14.068;2023-05-08T04:03:31;99194.56;;;1.33;100.00
52319;BME280;38258;51.148;14.068;2023-05-08T04:06:11;99204.03;;;1.33;100.00
52319;BME280;38258;51.148;14.068;2023-05-08T04:08:42;99196.47;;;1.42;100.00
52319;BME280;38258;51.148;14.068;2023-05-08T04:11:18;99209.69;;;1.56;100.00
52319;BME280;38258;51.148;14.068;2023-05-08T04:13:53;99214.50;;;1.40;100.00
52319;BME280;38258;51.148;14.068;2023-05-08T04:16:26;99213.19;;;1.60;100.00
52319;BME280;38258;51.148;14.068;2023-05-08T04:18:58;99198.88;;;1.74;100.00
52319;BME280;38258;51.148;14.068;2023-05-08T04:21:26;99215.84;;;1.64;100.00
52319;BME280;38258;51.148;14.068;2023-05-08T04:23:56;99220.59;;;1.86;100.00
52319;BME280;38258;51.148;14.068;2023-05-08T04:26:24;99216.56;;;1.57;100.00
52319;BME280;38258;51.148;14.068;2023-05-08T04:28:53;99213.16;;;1.58;100.00
52319;BME280;38258;51.148;14.068;2023-05-08T04:31:21;99225.47;;;1.72;100.00
52319;BME280;38258;51.148;14.068;2023-05-08T04:33:49;99224.41;;;1.62;100.00
52319;BME280;38258;51.148;14.068;2023-05-08T04:36:15;99199.16;;;1.45;100.00
52319;BME280;38258;51.148;14.068;2023-05-08T04:38:43;99222.78;;;1.67;100.00
52319;BME280;38258;51.148;14.068;2023-05-08T04:41:11;99229.84;;;1.74;100.00
52319;BME280;38258;51.148;14.068;2023-05-08T04:43:39;99227.44;;;1.83;100.00
52319;BME280;38258;51.148;14.068;2023-05-08T04:46:08;99237.06;;;1.92;100.00
52319;BME280;38258;51.148;14.068;2023-05-08T04:48:35;99231.53;;;2.64;100.00
52319;BME280;38258;51.148;14.068;2023-05-08T04:51:02;99236.69;;;2.64;100.00
52319;BME280;38258;51.148;14.068;2023-05-08T04:53:29;99242.25;;;2.88;100.00
52319;BME280;38258;51.148;14.068;2023-05-08T04:55:56;99246.63;;;2.93;100.00
52319;BME280;38258;51.148;14.068;2023-05-08T04:58:23;99249.84;;;3.34;100.00
52319;BME280;38258;51.148;14.068;2023-05-08T05:00:50;99257.72;;;3.43;100.00
52319;BME280;38258;51.148;14.068;2023-05-08T05:03:19;99258.75;;;3.53;100.00
52319;BME280;38258;51.148;14.068;2023-05-08T05:05:46;99261.22;;;3.47;100.00
52319;BME280;38258;51.148;14.068;2023-05-08T05:08:13;99260.69;;;3.70;100.00
52319;BME280;38258;51.148;14.068;2023-05-08T05:10:39;99257.53;;;3.92;100.00
52319;BME280;38258;51.148;14.068;2023-05-08T05:13:06;99254.28;;;4.10;100.00
52319;BME280;38258;51.148;14.068;2023-05-08T05:15:33;99257.69;;;4.05;100.00
52319;BME280;38258;51.148;14.068;2023-05-08T05:18:00;99256.00;;;4.08;100.00
52319;BME280;38258;51.148;14.068;2023-05-08T05:20:29;99253.47;;;4.13;100.00
52319;BME280;38258;51.148;14.068;2023-05-08T05:22:56;99249.97;;;4.09;100.00
52319;BME280;38258;51.148;14.068;2023-05-08T05:25:23;99258.25;;;4.55;100.00
52319;BME280;38258;51.148;14.068;2023-05-08T05:27:50;99260.94;;;4.65;100.00
52319;BME280;38258;51.148;14.068;2023-05-08T05:30:17;99260.81;;;4.55;100.00
52319;BME280;38258;51.148;14.068;2023-05-08T05:32:44;99262.41;;;4.40;100.00
52319;BME280;38258;51.148;14.068;2023-05-08T05:35:11;99264.19;;;4.46;100.00
52319;BME280;38258;51.148;14.068;2023-05-08T05:37:40;99261.91;;;4.77;100.00
52319;BME280;38258;51.148;14.068;2023-05-08T05:40:08;99261.84;;;4.72;100.00
52319;BME280;38258;51.148;14.068;2023-05-08T05:42:38;99260.28;;;4.90;100.00
52319;BME280;38258;51.148;14.068;2023-05-08T05:45:06;99270.03;;;5.22;100.00
52319;BME280;38258;51.148;14.068;2023-05-08T05:47:34;99266.47;;;5.06;100.00
52319;BME280;38258;51.148;14.068;2023-05-08T05:50:03;99270.72;;;4.96;100.00
52319;BME280;38258;51.148;14.068;2023-05-08T05:52:30;99263.03;;;5.10;100.00
52319;BME280;38258;51.148;14.068;2023-05-08T05:54:59;99267.69;;;5.58;100.00
52319;BME280;38258;51.148;14.068;2023-05-08T05:57:26;99262.56;;;5.70;100.00
52319;BME280;38258;51.148;14.068;2023-05-08T05:59:53;99272.91;;;5.59;100.00
52319;BME280;38258;51.148;14.068;2023-05-08T06:02:19;99272.97;;;5.69;100.00
52319;BME280;38258;51.148;14.068;2023-05-08T06:04:46;99272.00;;;5.59;100.00
52319;BME280;38258;51.148;14.068;2023-05-08T06:07:14;99276.53;;;5.91;100.00
52319;BME280;38258;51.148;14.068;2023-05-08T06:09:41;99273.91;;;5.88;100.00
52319;BME280;38258;51.148;14.068;2023-05-08T06:12:10;99276.56;;;5.97;100.00
52319;BME280;38258;51.148;14.068;2023-05-08T06:14:37;99275.84;;;6.31;100.00
52319;BME280;38258;51.148;14.068;2023-05-08T06:17:04;99278.44;;;6.34;100.00
52319;BME280;38258;51.148;14.068;2023-05-08T06:19:30;99272.38;;;6.29;100.00
52319;BME280;38258;51.148;14.068;2023-05-08T06:21:57;99279.34;;;6.41;100.00
52319;BME280;38258;51.148;14.068;2023-05-08T06:24:24;99278.50;;;6.51;100.00
52319;BME280;38258;51.148;14.068;2023-05-08T06:26:50;99274.19;;;6.47;100.00
52319;BME280;38258;51.148;14.068;2023-05-08T06:29:19;99275.06;;;6.66;100.00
52319;BME280;38258;51.148;14.068;2023-05-08T06:31:46;99253.41;;;6.64;100.00
52319;BME280;38258;51.148;14.068;2023-05-08T06:34:13;99268.16;;;6.81;100.00
52319;BME280;38258;51.148;14.068;2023-05-08T06:36:40;99267.31;;;6.88;100.00
52319;BME280;38258;51.148;14.068;2023-05-08T06:39:06;99273.38;;;6.85;100.00
52319;BME280;38258;51.148;14.068;2023-05-08T06:41:33;99272.50;;;7.02;100.00
52319;BME280;38258;51.148;14.068;2023-05-08T06:44:00;99277.69;;;7.10;100.00
52319;BME280;38258;51.148;14.068;2023-05-08T06:46:28;99276.84;;;7.01;100.00
52319;BME280;38258;51.148;14.068;2023-05-08T06:48:55;99271.63;;;7.25;100.00
52319;BME280;38258;51.148;14.068;2023-05-08T06:51:21;99280.31;;;7.16;100.00
52319;BME280;38258;51.148;14.068;2023-05-08T06:53:48;99278.56;;;7.16;100.00
52319;BME280;38258;51.148;14.068;2023-05-08T06:56:15;99280.31;;;7.33;100.00
52319;BME280;38258;51.148;14.068;2023-05-08T06:58:41;99276.78;;;7.63;100.00
52319;BME280;38258;51.148;14.068;2023-05-08T07:01:08;99273.34;;;7.57;100.00
52319;BME280;38258;51.148;14.068;2023-05-08T07:03:36;99269.91;;;7.44;100.00
52319;BME280;38258;51.148;14.068;2023-05-08T07:06:06;99267.25;;;7.72;100.00
52319;BME280;38258;51.148;14.068;2023-05-08T07:08:33;99266.28;;;7.96;100.00
52319;BME280;38258;51.148;14.068;2023-05-08T07:11:00;99266.16;;;8.23;100.00
52319;BME280;38258;51.148;14.068;2023-05-08T07:13:26;99265.31;;;8.25;100.00
52319;BME280;38258;51.148;14.068;2023-05-08T07:15:53;99252.34;;;8.11;100.00
52319;BME280;38258;51.148;14.068;2023-05-08T07:18:20;99266.97;;;8.40;100.00
52319;BME280;38258;51.148;14.068;2023-05-08T07:20:48;99269.59;;;8.40;100.00
52319;BME280;38258;51.148;14.068;2023-05-08T07:23:15;99273.78;;;8.69;100.00
52319;BME280;38258;51.148;14.068;2023-05-08T07:25:41;99266.78;;;8.76;100.00
52319;BME280;38258;51.148;14.068;2023-05-08T07:28:08;99276.16;;;9.05;100.00
52319;BME280;38258;51.148;14.068;2023-05-08T07:30:35;99272.06;;;8.67;100.00
52319;BME280;38258;51.148;14.068;2023-05-08T07:33:02;99269.13;;;9.10;100.00
52319;BME280;38258;51.148;14.068;2023-05-08T07:35:29;99269.53;;;8.48;100.00
52319;BME280;38258;51.148;14.068;2023-05-08T07:37:57;99276.47;;;8.49;100.00
52319;BME280;38258;51.148;14.068;2023-05-08T07:40:24;99276.25;;;8.88;100.00
52319;BME280;38258;51.148;14.068;2023-05-08T07:42:50;99272.59;;;9.12;100.00
52319;BME280;38258;51.148;14.068;2023-05-08T07:45:17;99270.47;;;9.55;100.00
52319;BME280;38258;51.148;14.068;2023-05-08T07:47:48;99271.72;;;9.15;100.00
52319;BME280;38258;51.148;14.068;2023-05-08T07:50:15;99269.75;;;9.39;100.00
52319;BME280;38258;51.148;14.068;2023-05-08T07:52:42;99275.66;;;9.59;100.00
52319;BME280;38258;51.148;14.068;2023-05-08T07:55:11;99270.34;;;9.67;100.00
52319;BME280;38258;51.148;14.068;2023-05-08T07:57:38;99271.44;;;10.26;100.00
52319;BME280;38258;51.148;14.068;2023-05-08T08:00:06;99254.63;;;10.45;100.00
52319;BME280;38258;51.148;14.068;2023-05-08T08:02:40;99274.03;;;10.92;100.00
52319;BME280;38258;51.148;14.068;2023-05-08T08:05:07;99254.13;;;11.33;100.00
52319;BME280;38258;51.148;14.068;2023-05-08T08:07:34;99262.56;;;11.51;100.00
52319;BME280;38258;51.148;14.068;2023-05-08T08:10:01;99258.09;;;11.57;100.00
52319;BME280;38258;51.148;14.068;2023-05-08T08:12:30;99272.09;;;11.53;94.38
52319;BME280;38258;51.148;14.068;2023-05-08T08:14:57;99269.97;;;11.27;94.36
52319;BME280;38258;51.148;14.068;2023-05-08T08:17:23;99274.69;;;11.05;96.08
52319;BME280;38258;51.148;14.068;2023-05-08T08:19:50;99279.03;;;11.07;93.47
52319;BME280;38258;51.148;14.068;2023-05-08T08:22:17;99267.38;;;10.70;92.70
52319;BME280;38258;51.148;14.068;2023-05-08T08:24:44;99263.38;;;12.01;100.00
52319;BME280;38258;51.148;14.068;2023-05-08T08:27:11;99263.13;;;12.14;93.33
52319;BME280;38258;51.148;14.068;2023-05-08T08:29:40;99265.88;;;11.09;85.74
52319;BME280;38258;51.148;14.068;2023-05-08T08:32:06;99262.38;;;11.60;88.20
52319;BME280;38258;51.148;14.068;2023-05-08T08:34:34;99268.44;;;12.52;82.17
52319;BME280;38258;51.148;14.068;2023-05-08T08:37:01;99266.94;;;11.97;82.32
52319;BME280;38258;51.148;14.068;2023-05-08T08:39:32;99264.19;;;12.05;84.39
52319;BME280;38258;51.148;14.068;2023-05-08T08:41:59;99269.63;;;11.47;78.40
52319;BME280;38258;51.148;14.068;2023-05-08T08:44:26;99268.88;;;11.87;82.66
52319;BME280;38258;51.148;14.068;2023-05-08T08:46:57;99264.38;;;11.93;80.25
52319;BME280;38258;51.148;14.068;2023-05-08T08:49:28;99266.47;;;12.22;83.35
52319;BME280;38258;51.148;14.068;2023-05-08T08:51:58;99266.13;;;12.38;80.80
52319;BME280;38258;51.148;14.068;2023-05-08T08:54:29;99270.03;;;12.59;77.09
52319;BME280;38258;51.148;14.068;2023-05-08T08:56:59;99269.22;;;12.57;77.82
52319;BME280;38258;51.148;14.068;2023-05-08T08:59:27;99269.44;;;14.51;78.42
52319;BME280;38258;51.148;14.068;2023-05-08T09:02:00;99266.28;;;13.45;69.74
52319;BME280;38258;51.148;14.068;2023-05-08T09:04:31;99261.09;;;13.04;71.35
52319;BME280;38258;51.148;14.068;2023-05-08T09:06:58;99244.75;;;13.29;72.53
52319;BME280;38258;51.148;14.068;2023-05-08T09:09:25;99274.16;;;14.10;85.52
52319;BME280;38258;51.148;14.068;2023-05-08T09:11:53;99275.69;;;13.54;72.12
52319;BME280;38258;51.148;14.068;2023-05-08T09:14:20;99272.56;;;14.04;66.94
52319;BME280;38258;51.148;14.068;2023-05-08T09:16:48;99266.53;;;13.34;64.28
52319;BME280;38258;51.148;14.068;2023-05-08T09:19:16;99266.97;;;13.15;69.24
52319;BME280;38258;51.148;14.068;2023-05-08T09:21:44;99256.69;;;14.37;79.85
52319;BME280;38258;51.148;14.068;2023-05-08T09:24:10;99260.97;;;14.72;67.44
52319;BME280;38258;51.148;14.068;2023-05-08T09:26:38;99258.84;;;14.24;69.80
52319;BME280;38258;51.148;14.068;2023-05-08T09:29:10;99259.06;;;14.17;67.53
52319;BME280;38258;51.148;14.068;2023-05-08T09:31:39;99257.34;;;15.03;61.98
52319;BME280;38258;51.148;14.068;2023-05-08T09:34:06;99247.94;;;15.99;60.20
52319;BME280;38258;51.148;14.068;2023-05-08T09:36:35;99254.03;;;14.39;61.68
52319;BME280;38258;51.148;14.068;2023-05-08T09:39:09;99250.53;;;16.00;58.13
52319;BME280;38258;51.148;14.068;2023-05-08T09:41:35;99235.47;;;14.13;57.82
52319;BME280;38258;51.148;14.068;2023-05-08T09:44:04;99243.69;;;14.61;58.50
52319;BME280;38258;51.148;14.068;2023-05-08T09:46:32;99245.06;;;15.79;57.96
52319;BME280;38258;51.148;14.068;2023-05-08T09:49:01;99245.22;;;15.24;60.93
52319;BME280;38258;51.148;14.068;2023-05-08T09:51:29;99251.03;;;15.34;56.90
52319;BME280;38258;51.148;14.068;2023-05-08T09:53:58;99246.31;;;15.69;61.18
52319;BME280;38258;51.148;14.068;2023-05-08T09:56:36;99245.31;;;14.65;55.68
52319;BME280;38258;51.148;14.068;2023-05-08T09:59:04;99238.50;;;15.15;56.25
52319;BME280;38258;51.148;14.068;2023-05-08T10:01:32;99241.22;;;15.90;63.17
52319;BME280;38258;51.148;14.068;2023-05-08T10:04:00;99244.59;;;16.63;55.37
52319;BME280;38258;51.148;14.068;2023-05-08T10:06:28;99239.59;;;15.86;55.40
52319;BME280;38258;51.148;14.068;2023-05-08T10:09:10;99249.94;;;15.14;55.04
52319;BME280;38258;51.148;14.068;2023-05-08T10:11:38;99239.91;;;15.76;56.97
52319;BME280;38258;51.148;14.068;2023-05-08T10:14:05;99243.47;;;15.75;60.71
52319;BME280;38258;51.148;14.068;2023-05-08T10:16:38;99248.94;;;16.42;56.31
52319;BME280;38258;51.148;14.068;2023-05-08T10:19:16;99236.16;;;14.79;56.78
52319;BME280;38258;51.148;14.068;2023-05-08T10:21:45;99239.06;;;15.50;54.01
52319;BME280;38258;51.148;14.068;2023-05-08T10:24:15;99237.25;;;16.72;58.98
52319;BME280;38258;51.148;14.068;2023-05-08T10:26:47;99230.28;;;17.14;58.09
52319;BME280;38258;51.148;14.068;2023-05-08T10:29:20;99246.00;;;16.94;56.97
52319;BME280;38258;51.148;14.068;2023-05-08T10:31:53;99240.78;;;15.51;52.29
52319;BME280;38258;51.148;14.068;2023-05-08T10:34:26;99238.22;;;15.99;57.60
52319;BME280;38258;51.148;14.068;2023-05-08T10:36:53;99231.63;;;15.62;53.96
52319;BME280;38258;51.148;14.068;2023-05-08T10:39:21;99214.25;;;16.74;57.27
52319;BME280;38258;51.148;14.068;2023-05-08T10:41:49;99238.25;;;16.45;53.39
52319;BME280;38258;51.148;14.068;2023-05-08T10:44:16;99231.75;;;15.59;53.35
52319;BME280;38258;51.148;14.068;2023-05-08T10:46:49;99215.88;;;15.08;53.81
52319;BME280;38258;51.148;14.068;2023-05-08T10:49:24;99226.69;;;16.25;53.80
52319;BME280;38258;51.148;14.068;2023-05-08T10:52:00;99216.22;;;15.75;54.27
52319;BME280;38258;51.148;14.068;2023-05-08T10:54:41;99226.53;;;15.32;54.39
52319;BME280;38258;51.148;14.068;2023-05-08T10:57:13;99214.63;;;15.45;53.28
52319;BME280;38258;51.148;14.068;2023-05-08T10:59:44;99213.09;;;16.13;54.57
52319;BME280;38258;51.148;14.068;2023-05-08T11:02:11;99211.38;;;16.58;51.79
52319;BME280;38258;51.148;14.068;2023-05-08T11:04:38;99214.56;;;16.44;51.77
52319;BME280;38258;51.148;14.068;2023-05-08T11:07:05;99207.59;;;15.95;52.27
52319;BME280;38258;51.148;14.068;2023-05-08T11:09:46;99221.66;;;16.42;50.32
52319;BME280;38258;51.148;14.068;2023-05-08T11:12:20;99217.16;;;15.23;54.05
52319;BME280;38258;51.148;14.068;2023-05-08T11:14:54;99214.75;;;16.15;51.89
52319;BME280;38258;51.148;14.068;2023-05-08T11:17:22;99212.94;;;16.84;51.64
52319;BME280;38258;51.148;14.068;2023-05-08T11:19:56;99205.38;;;16.97;51.42
52319;BME280;38258;51.148;14.068;2023-05-08T11:22:25;99193.44;;;16.21;52.32
52319;BME280;38258;51.148;14.068;2023-05-08T11:25:05;99209.38;;;14.93;54.06
52319;BME280;38258;51.148;14.068;2023-05-08T11:27:39;99220.63;;;15.23;54.82
52319;BME280;38258;51.148;14.068;2023-05-08T11:30:25;99208.34;;;15.99;53.44
52319;BME280;38258;51.148;14.068;2023-05-08T11:33:13;99200.94;;;16.08;52.04
52319;BME280;38258;51.148;14.068;2023-05-08T11:35:51;99202.28;;;17.09;50.79
52319;BME280;38258;51.148;14.068;2023-05-08T11:38:23;99202.50;;;16.36;51.44
52319;BME280;38258;51.148;14.068;2023-05-08T11:40:57;99199.22;;;16.96;50.92
52319;BME280;38258;51.148;14.068;2023-05-08T11:46:20;99200.75;;;17.24;49.74
52319;BME280;38258;51.148;14.068;2023-05-08T11:48:48;99198.59;;;17.53;52.60
52319;BME280;38258;51.148;14.068;2023-05-08T11:51:16;99191.94;;;17.03;54.17
52319;BME280;38258;51.148;14.068;2023-05-08T11:53:44;99197.94;;;17.69;51.14
52319;BME280;38258;51.148;14.068;2023-05-08T11:56:13;99199.03;;;17.44;48.99
52319;BME280;38258;51.148;14.068;2023-05-08T11:58:40;99195.38;;;17.67;49.25
52319;BME280;38258;51.148;14.068;2023-05-08T12:01:06;99195.88;;;17.15;46.76
52319;BME280;38258;51.148;14.068;2023-05-08T12:03:33;99189.38;;;17.43;50.52
52319;BME280;38258;51.148;14.068;2023-05-08T12:06:00;99190.34;;;17.20;47.95
52319;BME280;38258;51.148;14.068;2023-05-08T12:08:26;99191.41;;;16.73;48.10
52319;BME280;38258;51.148;14.068;2023-05-08T12:10:55;99179.56;;;15.92;49.46
52319;BME280;38258;51.148;14.068;2023-05-08T12:13:24;99198.16;;;17.02;48.34
52319;BME280;38258;51.148;14.068;2023-05-08T12:15:54;99194.56;;;16.38;46.91
52319;BME280;38258;51.148;14.068;2023-05-08T12:18:22;99191.34;;;16.30;47.38
52319;BME280;38258;51.148;14.068;2023-05-08T12:20:52;99192.38;;;16.25;48.94
52319;BME280;38258;51.148;14.068;2023-05-08T12:23:19;99174.31;;;16.81;45.71
52319;BME280;38258;51.148;14.068;2023-05-08T12:25:46;99185.22;;;16.51;47.97
52319;BME280;38258;51.148;14.068;2023-05-08T12:28:13;99200.28;;;17.56;46.83
52319;BME280;38258;51.148;14.068;2023-05-08T12:30:42;99193.44;;;18.11;48.05
52319;BME280;38258;51.148;14.068;2023-05-08T12:33:09;99186.09;;;16.95;46.99
52319;BME280;38258;51.148;14.068;2023-05-08T12:35:37;99194.78;;;16.54;46.62
52319;BME280;38258;51.148;14.068;2023-05-08T12:38:05;99160.41;;;16.56;53.18
52319;BME280;38258;51.148;14.068;2023-05-08T12:40:34;99181.91;;;17.53;47.05
52319;BME280;38258;51.148;14.068;2023-05-08T12:43:03;99176.97;;;17.64;47.49
52319;BME280;38258;51.148;14.068;2023-05-08T12:45:32;99179.06;;;17.37;44.90
52319;BME280;38258;51.148;14.068;2023-05-08T12:48:01;99176.97;;;16.15;48.05
52319;BME280;38258;51.148;14.068;2023-05-08T12:50:32;99177.84;;;16.37;48.12
52319;BME280;38258;51.148;14.068;2023-05-08T12:53:02;99177.97;;;18.21;50.72
52319;BME280;38258;51.148;14.068;2023-05-08T12:55:30;99176.88;;;18.25;46.12
52319;BME280;38258;51.148;14.068;2023-05-08T12:57:58;99170.06;;;18.75;52.11
52319;BME280;38258;51.148;14.068;2023-05-08T13:00:33;99175.25;;;17.63;45.06
52319;BME280;38258;51.148;14.068;2023-05-08T13:03:02;99178.16;;;17.97;47.63
52319;BME280;38258;51.148;14.068;2023-05-08T13:05:29;99167.56;;;16.74;46.27
52319;BME280;38258;51.148;14.068;2023-05-08T13:07:58;99171.34;;;16.89;48.33